sensor_id;sensor_type;location;lat;lon;timestamp;temperature;humidity
46890;DHT22;32625;51.080;16.970;2022-12-04T00:01:16;2.70;99.90
46890;DHT22;32625;51.080;16.970;2022-12-04T00:03:44;2.70;99.90
46890;DHT22;32625;51.080;16.970;2022-12-04T00:06:17;2.70;99.90
46890;DHT22;32625;51.080;16.970;2022-12-04T00:08:46;2.70;99.90
46890;DHT22;32625;51.080;16.970;2022-12-04T00:11:17;2.70;99.90
46890;DHT22;32625;51.080;16.970;2022-12-04T00:13:45;2.70;99.90
46890;DHT22;32625;51.080;16.970;2022-12-04T00:16:15;2.70;99.90
46890;DHT22;32625;51.080;16.970;2022-12-04T00:18:43;2.70;99.90
46890;DHT22;32625;51.080;16.970;2022-12-04T00:21:12;2.70;99.90
46890;DHT22;32625;51.080;16.970;2022-12-04T00:23:40;2.70;99.90
46890;DHT22;32625;51.080;16.970;2022-12-04T00:26:16;2.70;99.90
46890;DHT22;32625;51.080;16.970;2022-12-04T00:28:44;2.70;99.90
46890;DHT22;32625;51.080;16.970;2022-12-04T00:31:14;2.70;99.90
46890;DHT22;32625;51.080;16.970;2022-12-04T00:33:42;2.70;99.90
46890;DHT22;32625;51.080;16.970;2022-12-04T00:36:12;2.70;99.90
46890;DHT22;32625;51.080;16.970;2022-12-04T00:38:39;2.70;99.90
46890;DHT22;32625;51.080;16.970;2022-12-04T00:41:14;2.70;99.90
46890;DHT22;32625;51.080;16.970;2022-12-04T00:43:42;2.70;99.90
46890;DHT22;32625;51.080;16.970;2022-12-04T00:46:09;2.70;99.90
46890;DHT22;32625;51.080;16.970;2022-12-04T00:48:37;2.70;99.90
46890;DHT22;32625;51.080;16.970;2022-12-04T00:51:05;2.70;99.90
46890;DHT22;32625;51.080;16.970;2022-12-04T00:53:33;2.60;99.90
46890;DHT22;32625;51.080;16.970;2022-12-04T00:56:09;2.60;99.90
46890;DHT22;32625;51.080;16.970;2022-12-04T00:58:36;2.60;99.90
46890;DHT22;32625;51.080;16.970;2022-12-04T01:01:12;2.60;99.90
46890;DHT22;32625;51.080;16.970;2022-12-04T01:03:40;2.70;99.90
46890;DHT22;32625;51.080;16.970;2022-12-04T01:06:19;2.70;99.90
46890;DHT22;32625;51.080;16.970;2022-12-04T01:08:48;2.70;99.90
46890;DHT22;32625;51.080;16.970;2022-12-04T01:11:16;2.70;99.90
46890;DHT22;32625;51.080;16.970;2022-12-04T01:13:44;2.70;99.90
46890;DHT22;32625;51.080;16.970;2022-12-04T01:16:21;2.70;99.90
46890;DHT22;32625;51.080;16.970;2022-12-04T01:18:50;2.70;99.90
46890;DHT22;32625;51.080;16.970;2022-12-04T01:21:17;2.70;99.90
46890;DHT22;32625;51.080;16.970;2022-12-04T01:23:44;2.60;99.90
46890;DHT22;32625;51.080;16.970;2022-12-04T01:26:12;2.60;99.90
46890;DHT22;32625;51.080;16.970;2022-12-04T01:28:40;2.60;99.90
46890;DHT22;32625;51.080;16.970;2022-12-04T01:31:14;2.60;99.90
46890;DHT22;32625;51.080;16.970;2022-12-04T01:33:43;2.60;99.90
46890;DHT22;32625;51.080;16.970;2022-12-04T01:36:14;2.50;99.90
46890;DHT22;32625;51.080;16.970;2022-12-04T01:38:41;2.40;99.90
46890;DHT22;32625;51.080;16.970;2022-12-04T01:41:10;2.30;99.90
46890;DHT22;32625;51.080;16.970;2022-12-04T01:43:39;2.30;99.90
46890;DHT22;32625;51.080;16.970;2022-12-04T01:46:06;2.30;99.90
46890;DHT22;32625;51.080;16.970;2022-12-04T01:48:42;2.20;99.90
46890;DHT22;32625;51.080;16.970;2022-12-04T01:51:17;2.20;99.90
46890;DHT22;32625;51.080;16.970;2022-12-04T01:53:57;2.10;99.90
46890;DHT22;32625;51.080;16.970;2022-12-04T01:56:30;2.10;99.90
46890;DHT22;32625;51.080;16.970;2022-12-04T01:58:59;2.10;99.90
46890;DHT22;32625;51.080;16.970;2022-12-04T02:01:32;2.10;99.90
46890;DHT22;32625;51.080;16.970;2022-12-04T02:04:01;2.10;99.90
46890;DHT22;32625;51.080;16.970;2022-12-04T02:06:30;2.10;99.90
46890;DHT22;32625;51.080;16.970;2022-12-04T02:08:57;2.10;99.90
46890;DHT22;32625;51.080;16.970;2022-12-04T02:14:10;2.20;99.90
46890;DHT22;32625;51.080;16.970;2022-12-04T02:16:59;2.20;99.90
46890;DHT22;32625;51.080;16.970;2022-12-04T02:19:59;2.20;99.90
46890;DHT22;32625;51.080;16.970;2022-12-04T02:28:55;2.30;99.90
46890;DHT22;32625;51.080;16.970;2022-12-04T02:31:31;2.40;99.90
46890;DHT22;32625;51.080;16.970;2022-12-04T02:34:21;2.40;99.90
46890;DHT22;32625;51.080;16.970;2022-12-04T02:37:00;2.40;99.90
46890;DHT22;32625;51.080;16.970;2022-12-04T02:39:42;2.40;99.90
46890;DHT22;32625;51.080;16.970;2022-12-04T02:42:14;2.40;99.90
46890;DHT22;32625;51.080;16.970;2022-12-04T02:44:55;2.50;99.90
46890;DHT22;32625;51.080;16.970;2022-12-04T02:47:24;2.50;99.90
46890;DHT22;32625;51.080;16.970;2022-12-04T02:49:57;2.50;99.90
46890;DHT22;32625;51.080;16.970;2022-12-04T02:52:35;2.50;99.90
46890;DHT22;32625;51.080;16.970;2022-12-04T02:55:09;2.50;99.90
46890;DHT22;32625;51.080;16.970;2022-12-04T02:57:40;2.50;99.90
46890;DHT22;32625;51.080;16.970;2022-12-04T03:00:10;2.50;99.90
46890;DHT22;32625;51.080;16.970;2022-12-04T03:05:25;2.60;99.90
46890;DHT22;32625;51.080;16.970;2022-12-04T03:08:03;2.60;99.90
46890;DHT22;32625;51.080;16.970;2022-12-04T03:10:40;2.50;99.90
46890;DHT22;32625;51.080;16.970;2022-12-04T03:13:14;2.40;99.90
46890;DHT22;32625;51.080;16.970;2022-12-04T03:15:51;2.30;99.90
46890;DHT22;32625;51.080;16.970;2022-12-04T03:18:28;2.20;99.90
46890;DHT22;32625;51.080;16.970;2022-12-04T03:21:05;2.10;99.90
46890;DHT22;32625;51.080;16.970;2022-12-04T03:23:41;2.00;99.90
46890;DHT22;32625;51.080;16.970;2022-12-04T03:26:23;2.00;99.90
46890;DHT22;32625;51.080;16.970;2022-12-04T03:34:12;1.80;99.90
46890;DHT22;32625;51.080;16.970;2022-12-04T03:36:52;1.70;99.90
46890;DHT22;32625;51.080;16.970;2022-12-04T03:39:26;1.70;99.90
46890;DHT22;32625;51.080;16.970;2022-12-04T03:42:19;1.70;99.90
46890;DHT22;32625;51.080;16.970;2022-12-04T03:45:09;1.60;99.90
46890;DHT22;32625;51.080;16.970;2022-12-04T03:47:48;1.50;99.90
46890;DHT22;32625;51.080;16.970;2022-12-04T03:50:23;1.50;99.90
46890;DHT22;32625;51.080;16.970;2022-12-04T03:53:05;1.50;99.90
46890;DHT22;32625;51.080;16.970;2022-12-04T03:55:49;1.40;99.90
46890;DHT22;32625;51.080;16.970;2022-12-04T03:58:21;1.40;99.90
46890;DHT22;32625;51.080;16.970;2022-12-04T04:00:52;1.30;99.90
46890;DHT22;32625;51.080;16.970;2022-12-04T04:04:09;1.30;99.90
46890;DHT22;32625;51.080;16.970;2022-12-04T04:06:16;1.30;99.90
46890;DHT22;32625;51.080;16.970;2022-12-04T04:08:47;1.30;99.90
46890;DHT22;32625;51.080;16.970;2022-12-04T04:11:29;1.30;99.90
46890;DHT22;32625;51.080;16.970;2022-12-04T04:14:07;1.40;99.90
46890;DHT22;32625;51.080;16.970;2022-12-04T04:17:03;1.40;99.90
46890;DHT22;32625;51.080;16.970;2022-12-04T04:19:59;1.50;99.90
46890;DHT22;32625;51.080;16.970;2022-12-04T04:22:48;1.50;99.90
46890;DHT22;32625;51.080;16.970;2022-12-04T04:25:37;1.40;99.90
46890;DHT22;32625;51.080;16.970;2022-12-04T04:28:39;1.50;99.90
46890;DHT22;32625;51.080;16.970;2022-12-04T04:33:56;1.50;99.90
46890;DHT22;32625;51.080;16.970;2022-12-04T04:41:57;1.40;99.90
46890;DHT22;32625;51.080;16.970;2022-12-04T04:45:00;1.30;99.90
46890;DHT22;32625;51.080;16.970;2022-12-04T04:47:37;1.30;99.90
46890;DHT22;32625;51.080;16.970;2022-12-04T04:50:09;1.30;99.90
46890;DHT22;32625;51.080;16.970;2022-12-04T04:52:39;1.20;99.90
46890;DHT22;32625;51.080;16.970;2022-12-04T04:55:08;1.20;99.90
46890;DHT22;32625;51.080;16.970;2022-12-04T04:57:36;1.10;99.90
46890;DHT22;32625;51.080;16.970;2022-12-04T05:00:09;1.10;99.90
46890;DHT22;32625;51.080;16.970;2022-12-04T05:02:37;1.00;99.90
46890;DHT22;32625;51.080;16.970;2022-12-04T05:05:05;1.10;99.90
46890;DHT22;32625;51.080;16.970;2022-12-04T05:07:33;1.00;99.90
46890;DHT22;32625;51.080;16.970;2022-12-04T05:10:00;1.00;99.90
46890;DHT22;32625;51.080;16.970;2022-12-04T05:12:27;1.00;99.90
46890;DHT22;32625;51.080;16.970;2022-12-04T05:14:54;1.00;99.90
46890;DHT22;32625;51.080;16.970;2022-12-04T05:17:21;0.90;99.90
46890;DHT22;32625;51.080;16.970;2022-12-04T05:19:49;0.90;99.90
46890;DHT22;32625;51.080;16.970;2022-12-04T05:22:29;0.90;99.90
46890;DHT22;32625;51.080;16.970;2022-12-04T05:24:58;0.90;99.90
46890;DHT22;32625;51.080;16.970;2022-12-04T05:27:26;0.90;99.90
46890;DHT22;32625;51.080;16.970;2022-12-04T05:29:54;0.80;99.90
46890;DHT22;32625;51.080;16.970;2022-12-04T05:32:23;0.80;99.90
46890;DHT22;32625;51.080;16.970;2022-12-04T05:34:52;0.70;99.90
46890;DHT22;32625;51.080;16.970;2022-12-04T05:37:20;0.60;99.90
46890;DHT22;32625;51.080;16.970;2022-12-04T05:39:47;0.60;99.90
46890;DHT22;32625;51.080;16.970;2022-12-04T05:42:14;0.60;99.90
46890;DHT22;32625;51.080;16.970;2022-12-04T05:44:42;0.50;99.90
46890;DHT22;32625;51.080;16.970;2022-12-04T05:47:09;0.50;99.90
46890;DHT22;32625;51.080;16.970;2022-12-04T05:49:36;0.50;99.90
46890;DHT22;32625;51.080;16.970;2022-12-04T05:52:04;0.50;99.90
46890;DHT22;32625;51.080;16.970;2022-12-04T05:54:31;0.50;99.90
46890;DHT22;32625;51.080;16.970;2022-12-04T05:56:58;0.50;99.90
46890;DHT22;32625;51.080;16.970;2022-12-04T05:59:25;0.40;99.90
46890;DHT22;32625;51.080;16.970;2022-12-04T06:01:53;0.40;99.90
46890;DHT22;32625;51.080;16.970;2022-12-04T06:04:20;0.40;99.90
46890;DHT22;32625;51.080;16.970;2022-12-04T06:06:47;0.40;99.90
46890;DHT22;32625;51.080;16.970;2022-12-04T06:09:14;0.40;99.90
46890;DHT22;32625;51.080;16.970;2022-12-04T06:11:42;0.40;99.90
46890;DHT22;32625;51.080;16.970;2022-12-04T06:14:12;0.40;99.90
46890;DHT22;32625;51.080;16.970;2022-12-04T06:16:41;0.40;99.90
46890;DHT22;32625;51.080;16.970;2022-12-04T06:19:19;0.40;99.90
46890;DHT22;32625;51.080;16.970;2022-12-04T06:21:49;0.40;99.90
46890;DHT22;32625;51.080;16.970;2022-12-04T06:24:19;0.30;99.90
46890;DHT22;32625;51.080;16.970;2022-12-04T06:26:47;0.40;99.90
46890;DHT22;32625;51.080;16.970;2022-12-04T06:29:34;0.30;99.90
46890;DHT22;32625;51.080;16.970;2022-12-04T06:32:02;0.30;99.90
46890;DHT22;32625;51.080;16.970;2022-12-04T06:34:29;0.30;99.90
46890;DHT22;32625;51.080;16.970;2022-12-04T06:36:56;0.40;99.90
46890;DHT22;32625;51.080;16.970;2022-12-04T06:39:24;0.40;99.90
46890;DHT22;32625;51.080;16.970;2022-12-04T06:41:51;0.30;99.90
46890;DHT22;32625;51.080;16.970;2022-12-04T06:44:18;0.30;99.90
46890;DHT22;32625;51.080;16.970;2022-12-04T06:46:45;0.30;99.90
46890;DHT22;32625;51.080;16.970;2022-12-04T06:49:16;0.40;99.90
46890;DHT22;32625;51.080;16.970;2022-12-04T06:51:43;0.30;99.90
46890;DHT22;32625;51.080;16.970;2022-12-04T06:54:10;0.50;99.90
46890;DHT22;32625;51.080;16.970;2022-12-04T06:56:37;0.40;99.90
46890;DHT22;32625;51.080;16.970;2022-12-04T06:59:05;0.50;99.90
46890;DHT22;32625;51.080;16.970;2022-12-04T07:01:33;0.60;99.90
46890;DHT22;32625;51.080;16.970;2022-12-04T07:04:01;0.60;99.90
46890;DHT22;32625;51.080;16.970;2022-12-04T07:06:39;0.60;99.90
46890;DHT22;32625;51.080;16.970;2022-12-04T07:09:10;0.70;99.90
46890;DHT22;32625;51.080;16.970;2022-12-04T07:11:39;0.80;99.90
46890;DHT22;32625;51.080;16.970;2022-12-04T07:14:06;0.80;99.90
46890;DHT22;32625;51.080;16.970;2022-12-04T07:16:33;0.90;99.90
46890;DHT22;32625;51.080;16.970;2022-12-04T07:19:08;1.00;99.90
46890;DHT22;32625;51.080;16.970;2022-12-04T07:21:35;1.00;99.90
46890;DHT22;32625;51.080;16.970;2022-12-04T07:24:02;1.10;99.90
46890;DHT22;32625;51.080;16.970;2022-12-04T07:26:30;1.20;99.90
46890;DHT22;32625;51.080;16.970;2022-12-04T07:28:58;1.20;99.90
46890;DHT22;32625;51.080;16.970;2022-12-04T07:31:26;1.30;99.90
46890;DHT22;32625;51.080;16.970;2022-12-04T07:33:55;1.30;99.90
46890;DHT22;32625;51.080;16.970;2022-12-04T07:36:23;1.40;99.90
46890;DHT22;32625;51.080;16.970;2022-12-04T07:38:51;1.50;99.90
46890;DHT22;32625;51.080;16.970;2022-12-04T07:41:20;1.50;99.90
46890;DHT22;32625;51.080;16.970;2022-12-04T07:43:47;1.50;99.90
46890;DHT22;32625;51.080;16.970;2022-12-04T07:46:20;1.60;99.90
46890;DHT22;32625;51.080;16.970;2022-12-04T07:48:47;1.60;99.90
46890;DHT22;32625;51.080;16.970;2022-12-04T07:51:21;1.60;99.90
46890;DHT22;32625;51.080;16.970;2022-12-04T07:53:49;1.70;99.90
46890;DHT22;32625;51.080;16.970;2022-12-04T07:56:17;1.70;99.90
46890;DHT22;32625;51.080;16.970;2022-12-04T07:58:45;1.70;99.90
46890;DHT22;32625;51.080;16.970;2022-12-04T08:01:18;1.70;99.90
46890;DHT22;32625;51.080;16.970;2022-12-04T08:03:48;1.70;99.90
46890;DHT22;32625;51.080;16.970;2022-12-04T08:06:20;1.80;99.90
46890;DHT22;32625;51.080;16.970;2022-12-04T08:08:48;1.80;99.90
46890;DHT22;32625;51.080;16.970;2022-12-04T08:11:18;1.90;99.90
46890;DHT22;32625;51.080;16.970;2022-12-04T08:13:45;1.90;99.90
46890;DHT22;32625;51.080;16.970;2022-12-04T08:16:14;2.00;99.90
46890;DHT22;32625;51.080;16.970;2022-12-04T08:18:41;2.00;99.90
46890;DHT22;32625;51.080;16.970;2022-12-04T08:21:15;2.10;99.90
46890;DHT22;32625;51.080;16.970;2022-12-04T08:23:43;2.10;99.90
46890;DHT22;32625;51.080;16.970;2022-12-04T08:26:11;2.10;99.90
46890;DHT22;32625;51.080;16.970;2022-12-04T08:28:39;2.20;99.90
46890;DHT22;32625;51.080;16.970;2022-12-04T08:31:19;2.20;99.90
46890;DHT22;32625;51.080;16.970;2022-12-04T08:33:47;2.30;99.90
46890;DHT22;32625;51.080;16.970;2022-12-04T08:36:17;2.30;99.90
46890;DHT22;32625;51.080;16.970;2022-12-04T08:38:45;2.40;99.90
46890;DHT22;32625;51.080;16.970;2022-12-04T08:41:14;2.40;99.90
46890;DHT22;32625;51.080;16.970;2022-12-04T08:43:42;2.50;99.90
46890;DHT22;32625;51.080;16.970;2022-12-04T08:46:13;2.60;99.90
46890;DHT22;32625;51.080;16.970;2022-12-04T08:48:43;2.70;99.90
46890;DHT22;32625;51.080;16.970;2022-12-04T08:51:17;2.80;99.90
46890;DHT22;32625;51.080;16.970;2022-12-04T08:53:46;2.90;99.90
46890;DHT22;32625;51.080;16.970;2022-12-04T08:56:13;3.00;99.90
46890;DHT22;32625;51.080;16.970;2022-12-04T08:58:40;3.00;99.90
46890;DHT22;32625;51.080;16.970;2022-12-04T09:01:12;3.10;99.90
46890;DHT22;32625;51.080;16.970;2022-12-04T09:03:40;3.20;99.90
46890;DHT22;32625;51.080;16.970;2022-12-04T09:06:09;3.20;99.90
46890;DHT22;32625;51.080;16.970;2022-12-04T09:08:37;3.20;99.90
46890;DHT22;32625;51.080;16.970;2022-12-04T09:11:16;3.30;99.90
46890;DHT22;32625;51.080;16.970;2022-12-04T09:13:43;3.30;99.90
46890;DHT22;32625;51.080;16.970;2022-12-04T09:16:14;3.40;99.90
46890;DHT22;32625;51.080;16.970;2022-12-04T09:18:42;3.40;99.90
46890;DHT22;32625;51.080;16.970;2022-12-04T09:21:11;3.50;99.90
46890;DHT22;32625;51.080;16.970;2022-12-04T09:23:39;3.50;99.90
46890;DHT22;32625;51.080;16.970;2022-12-04T09:28:46;3.70;99.90
46890;DHT22;32625;51.080;16.970;2022-12-04T09:31:13;3.70;99.90
46890;DHT22;32625;51.080;16.970;2022-12-04T09:33:40;3.80;99.90
46890;DHT22;32625;51.080;16.970;2022-12-04T09:36:07;3.90;99.90
46890;DHT22;32625;51.080;16.970;2022-12-04T09:38:47;3.90;99.90
46890;DHT22;32625;51.080;16.970;2022-12-04T09:41:20;4.10;99.90
46890;DHT22;32625;51.080;16.970;2022-12-04T09:46:48;4.20;99.90
46890;DHT22;32625;51.080;16.970;2022-12-04T09:49:42;4.20;99.90
46890;DHT22;32625;51.080;16.970;2022-12-04T09:55:02;4.20;99.90
46890;DHT22;32625;51.080;16.970;2022-12-04T09:57:41;4.40;99.90
46890;DHT22;32625;51.080;16.970;2022-12-04T10:00:15;4.20;99.90
46890;DHT22;32625;51.080;16.970;2022-12-04T10:02:55;4.20;99.90
46890;DHT22;32625;51.080;16.970;2022-12-04T10:08:37;4.20;99.90
46890;DHT22;32625;51.080;16.970;2022-12-04T10:14:38;4.20;99.90
46890;DHT22;32625;51.080;16.970;2022-12-04T10:25:40;4.20;99.90
46890;DHT22;32625;51.080;16.970;2022-12-04T10:28:20;4.30;99.90
46890;DHT22;32625;51.080;16.970;2022-12-04T10:30:50;4.30;99.90
46890;DHT22;32625;51.080;16.970;2022-12-04T10:33:25;4.30;99.90
46890;DHT22;32625;51.080;16.970;2022-12-04T10:35:56;4.30;99.90
46890;DHT22;32625;51.080;16.970;2022-12-04T10:38:48;4.30;99.90
46890;DHT22;32625;51.080;16.970;2022-12-04T10:41:39;4.40;99.90
46890;DHT22;32625;51.080;16.970;2022-12-04T10:44:16;4.40;99.90
46890;DHT22;32625;51.080;16.970;2022-12-04T10:46:44;4.50;99.90
46890;DHT22;32625;51.080;16.970;2022-12-04T10:49:20;4.50;99.90
46890;DHT22;32625;51.080;16.970;2022-12-04T10:51:48;4.50;99.90
46890;DHT22;32625;51.080;16.970;2022-12-04T10:54:20;4.50;99.90
46890;DHT22;32625;51.080;16.970;2022-12-04T10:57:05;4.60;99.90
46890;DHT22;32625;51.080;16.970;2022-12-04T10:59:33;4.60;99.90
46890;DHT22;32625;51.080;16.970;2022-12-04T11:05:00;4.60;99.90
46890;DHT22;32625;51.080;16.970;2022-12-04T11:07:42;4.70;99.90
46890;DHT22;32625;51.080;16.970;2022-12-04T11:10:36;4.70;99.90
46890;DHT22;32625;51.080;16.970;2022-12-04T11:15:51;4.80;99.90
46890;DHT22;32625;51.080;16.970;2022-12-04T11:18:22;4.80;99.90
46890;DHT22;32625;51.080;16.970;2022-12-04T11:20:52;4.80;99.90
46890;DHT22;32625;51.080;16.970;2022-12-04T11:23:20;4.90;99.90
46890;DHT22;32625;51.080;16.970;2022-12-04T11:25:51;4.90;99.90
46890;DHT22;32625;51.080;16.970;2022-12-04T11:28:23;4.90;99.90
46890;DHT22;32625;51.080;16.970;2022-12-04T11:31:08;5.00;99.90
46890;DHT22;32625;51.080;16.970;2022-12-04T11:33:45;5.00;99.90
46890;DHT22;32625;51.080;16.970;2022-12-04T11:36:18;5.00;99.90
46890;DHT22;32625;51.080;16.970;2022-12-04T11:38:46;5.00;99.90
46890;DHT22;32625;51.080;16.970;2022-12-04T11:41:28;5.00;99.90
46890;DHT22;32625;51.080;16.970;2022-12-04T11:43:57;5.00;99.90
46890;DHT22;32625;51.080;16.970;2022-12-04T11:46:31;5.00;99.90
46890;DHT22;32625;51.080;16.970;2022-12-04T11:49:00;4.90;99.90
46890;DHT22;32625;51.080;16.970;2022-12-04T11:54:37;4.90;99.90
46890;DHT22;32625;51.080;16.970;2022-12-04T12:00:26;5.00;99.90
46890;DHT22;32625;51.080;16.970;2022-12-04T12:03:15;5.10;99.90
46890;DHT22;32625;51.080;16.970;2022-12-04T12:08:51;5.30;99.90
46890;DHT22;32625;51.080;16.970;2022-12-04T12:20:06;5.50;99.90
46890;DHT22;32625;51.080;16.970;2022-12-04T12:25:45;5.50;99.90
46890;DHT22;32625;51.080;16.970;2022-12-04T12:28:46;5.60;99.90
46890;DHT22;32625;51.080;16.970;2022-12-04T12:31:31;5.50;99.90
46890;DHT22;32625;51.080;16.970;2022-12-04T12:34:07;5.40;99.90
46890;DHT22;32625;51.080;16.970;2022-12-04T12:36:41;5.40;99.90
46890;DHT22;32625;51.080;16.970;2022-12-04T12:39:18;5.40;99.90
46890;DHT22;32625;51.080;16.970;2022-12-04T12:41:50;5.30;99.90
46890;DHT22;32625;51.080;16.970;2022-12-04T12:44:47;5.30;99.90
46890;DHT22;32625;51.080;16.970;2022-12-04T12:47:17;5.20;99.90
46890;DHT22;32625;51.080;16.970;2022-12-04T12:52:40;5.20;99.90
46890;DHT22;32625;51.080;16.970;2022-12-04T12:55:38;5.20;99.90
46890;DHT22;32625;51.080;16.970;2022-12-04T12:58:09;5.20;99.90
46890;DHT22;32625;51.080;16.970;2022-12-04T13:01:02;5.10;99.90
46890;DHT22;32625;51.080;16.970;2022-12-04T13:06:27;5.00;99.90
46890;DHT22;32625;51.080;16.970;2022-12-04T13:11:34;5.00;99.90
46890;DHT22;32625;51.080;16.970;2022-12-04T13:14:03;5.00;99.90
46890;DHT22;32625;51.080;16.970;2022-12-04T13:30:58;5.00;99.90
46890;DHT22;32625;51.080;16.970;2022-12-04T13:39:06;4.90;99.90
46890;DHT22;32625;51.080;16.970;2022-12-04T13:41:42;5.00;99.90
46890;DHT22;32625;51.080;16.970;2022-12-04T13:44:20;5.00;99.90
46890;DHT22;32625;51.080;16.970;2022-12-04T13:46:59;4.90;99.90
46890;DHT22;32625;51.080;16.970;2022-12-04T13:49:35;4.90;99.90
46890;DHT22;32625;51.080;16.970;2022-12-04T13:52:05;4.80;99.90
46890;DHT22;32625;51.080;16.970;2022-12-04T13:54:56;4.90;99.90
46890;DHT22;32625;51.080;16.970;2022-12-04T13:57:25;4.80;99.90
46890;DHT22;32625;51.080;16.970;2022-12-04T14:00:03;4.70;99.90
46890;DHT22;32625;51.080;16.970;2022-12-04T14:02:41;4.70;99.90
46890;DHT22;32625;51.080;16.970;2022-12-04T14:05:11;4.70;99.90
46890;DHT22;32625;51.080;16.970;2022-12-04T14:08:05;4.70;99.90
46890;DHT22;32625;51.080;16.970;2022-12-04T14:10:36;4.60;99.90
46890;DHT22;32625;51.080;16.970;2022-12-04T14:13:15;4.60;99.90
46890;DHT22;32625;51.080;16.970;2022-12-04T14:15:44;4.60;99.90
46890;DHT22;32625;51.080;16.970;2022-12-04T14:20:41;4.50;99.90
46890;DHT22;32625;51.080;16.970;2022-12-04T14:25:53;4.40;99.90
46890;DHT22;32625;51.080;16.970;2022-12-04T14:28:35;4.40;99.90
46890;DHT22;32625;51.080;16.970;2022-12-04T14:31:17;4.30;99.90
46890;DHT22;32625;51.080;16.970;2022-12-04T14:33:53;4.20;99.90
46890;DHT22;32625;51.080;16.970;2022-12-04T14:36:32;4.10;99.90
46890;DHT22;32625;51.080;16.970;2022-12-04T14:41:42;4.00;99.90
46890;DHT22;32625;51.080;16.970;2022-12-04T14:44:27;4.00;99.90
46890;DHT22;32625;51.080;16.970;2022-12-04T14:47:20;3.90;99.90
46890;DHT22;32625;51.080;16.970;2022-12-04T14:58:37;3.80;99.90
46890;DHT22;32625;51.080;16.970;2022-12-04T15:03:54;3.70;99.90
46890;DHT22;32625;51.080;16.970;2022-12-04T15:06:27;3.70;99.90
46890;DHT22;32625;51.080;16.970;2022-12-04T15:08:57;3.60;99.90
46890;DHT22;32625;51.080;16.970;2022-12-04T15:11:54;3.60;99.90
46890;DHT22;32625;51.080;16.970;2022-12-04T15:14:46;3.60;99.90
46890;DHT22;32625;51.080;16.970;2022-12-04T15:17:15;3.50;99.90
46890;DHT22;32625;51.080;16.970;2022-12-04T15:19:43;3.50;99.90
46890;DHT22;32625;51.080;16.970;2022-12-04T15:22:20;3.60;99.90
46890;DHT22;32625;51.080;16.970;2022-12-04T15:24:49;3.60;99.90
46890;DHT22;32625;51.080;16.970;2022-12-04T15:27:20;3.70;99.90
46890;DHT22;32625;51.080;16.970;2022-12-04T15:29:58;3.60;99.90
46890;DHT22;32625;51.080;16.970;2022-12-04T15:32:26;3.60;99.90
46890;DHT22;32625;51.080;16.970;2022-12-04T15:34:59;3.50;99.90
46890;DHT22;32625;51.080;16.970;2022-12-04T15:37:30;3.60;99.90
46890;DHT22;32625;51.080;16.970;2022-12-04T15:39:58;3.60;99.90
46890;DHT22;32625;51.080;16.970;2022-12-04T15:42:28;3.60;99.90
46890;DHT22;32625;51.080;16.970;2022-12-04T15:55:29;3.40;99.90
46890;DHT22;32625;51.080;16.970;2022-12-04T15:58:06;3.40;99.90
46890;DHT22;32625;51.080;16.970;2022-12-04T16:00:37;3.40;99.90
46890;DHT22;32625;51.080;16.970;2022-12-04T16:05:47;3.30;99.90
46890;DHT22;32625;51.080;16.970;2022-12-04T16:08:32;3.30;99.90
46890;DHT22;32625;51.080;16.970;2022-12-04T16:11:06;3.20;99.90
46890;DHT22;32625;51.080;16.970;2022-12-04T16:13:36;3.10;99.90
46890;DHT22;32625;51.080;16.970;2022-12-04T16:16:10;3.10;99.90
46890;DHT22;32625;51.080;16.970;2022-12-04T16:18:38;3.10;99.90
46890;DHT22;32625;51.080;16.970;2022-12-04T16:21:16;3.10;99.90
46890;DHT22;32625;51.080;16.970;2022-12-04T16:23:44;3.10;99.90
46890;DHT22;32625;51.080;16.970;2022-12-04T16:26:13;3.00;99.90
46890;DHT22;32625;51.080;16.970;2022-12-04T16:28:40;3.00;99.90
46890;DHT22;32625;51.080;16.970;2022-12-04T16:31:10;2.90;99.90
46890;DHT22;32625;51.080;16.970;2022-12-04T16:33:39;2.90;99.90
46890;DHT22;32625;51.080;16.970;2022-12-04T16:36:08;2.90;99.90
46890;DHT22;32625;51.080;16.970;2022-12-04T16:38:36;2.90;99.90
46890;DHT22;32625;51.080;16.970;2022-12-04T16:41:04;2.80;99.90
46890;DHT22;32625;51.080;16.970;2022-12-04T16:43:31;2.90;99.90
46890;DHT22;32625;51.080;16.970;2022-12-04T16:46:00;2.80;99.90
46890;DHT22;32625;51.080;16.970;2022-12-04T16:48:27;2.80;99.90
46890;DHT22;32625;51.080;16.970;2022-12-04T16:50:55;2.70;99.90
46890;DHT22;32625;51.080;16.970;2022-12-04T16:53:22;2.70;99.90
46890;DHT22;32625;51.080;16.970;2022-12-04T16:55:51;2.60;99.90
46890;DHT22;32625;51.080;16.970;2022-12-04T16:58:19;2.50;99.90
46890;DHT22;32625;51.080;16.970;2022-12-04T17:00:54;2.50;99.90
46890;DHT22;32625;51.080;16.970;2022-12-04T17:03:32;2.40;99.90
46890;DHT22;32625;51.080;16.970;2022-12-04T17:06:00;2.30;99.90
46890;DHT22;32625;51.080;16.970;2022-12-04T17:08:27;2.30;99.90
46890;DHT22;32625;51.080;16.970;2022-12-04T17:10:54;2.20;99.90
46890;DHT22;32625;51.080;16.970;2022-12-04T17:13:21;2.20;99.90
46890;DHT22;32625;51.080;16.970;2022-12-04T17:15:49;2.10;99.90
46890;DHT22;32625;51.080;16.970;2022-12-04T17:18:16;2.10;99.90
46890;DHT22;32625;51.080;16.970;2022-12-04T17:20:47;2.10;99.90
46890;DHT22;32625;51.080;16.970;2022-12-04T17:23:15;2.00;99.90
46890;DHT22;32625;51.080;16.970;2022-12-04T17:25:42;2.10;99.90
46890;DHT22;32625;51.080;16.970;2022-12-04T17:28:09;2.00;99.90
46890;DHT22;32625;51.080;16.970;2022-12-04T17:30:37;2.10;99.90
46890;DHT22;32625;51.080;16.970;2022-12-04T17:33:04;2.10;99.90
46890;DHT22;32625;51.080;16.970;2022-12-04T17:35:33;2.00;99.90
46890;DHT22;32625;51.080;16.970;2022-12-04T17:38:00;2.10;99.90
46890;DHT22;32625;51.080;16.970;2022-12-04T17:40:32;2.00;99.90
46890;DHT22;32625;51.080;16.970;2022-12-04T17:42:59;2.00;99.90
46890;DHT22;32625;51.080;16.970;2022-12-04T17:45:26;2.10;99.90
46890;DHT22;32625;51.080;16.970;2022-12-04T17:47:54;2.10;99.90
46890;DHT22;32625;51.080;16.970;2022-12-04T17:50:21;2.10;99.90
46890;DHT22;32625;51.080;16.970;2022-12-04T17:52:49;2.00;99.90
46890;DHT22;32625;51.080;16.970;2022-12-04T17:55:16;2.00;99.90
46890;DHT22;32625;51.080;16.970;2022-12-04T17:57:43;2.00;99.90
46890;DHT22;32625;51.080;16.970;2022-12-04T18:00:11;2.00;99.90
46890;DHT22;32625;51.080;16.970;2022-12-04T18:02:38;1.90;99.90
46890;DHT22;32625;51.080;16.970;2022-12-04T18:05:08;2.00;99.90
46890;DHT22;32625;51.080;16.970;2022-12-04T18:07:35;2.10;99.90
46890;DHT22;32625;51.080;16.970;2022-12-04T18:10:03;2.10;99.90
46890;DHT22;32625;51.080;16.970;2022-12-04T18:12:30;2.10;99.90
46890;DHT22;32625;51.080;16.970;2022-12-04T18:14:58;2.20;99.90
46890;DHT22;32625;51.080;16.970;2022-12-04T18:17:26;2.20;99.90
46890;DHT22;32625;51.080;16.970;2022-12-04T18:19:53;2.20;99.90